createdAt,value
2023-05-05T00:00:31.500Z,14.33
2023-05-05T00:05:31.397Z,14.29
2023-05-05T00:10:31.459Z,14.26
2023-05-05T00:15:34.294Z,14.24
2023-05-05T00:20:31.628Z,14.23
2023-05-05T00:25:32.693Z,14.22
2023-05-05T00:30:42.284Z,14.2
2023-05-05T00:35:31.308Z,14.22
2023-05-05T00:40:31.452Z,14.19
2023-05-05T00:45:34.279Z,14.18
2023-05-05T00:50:32.292Z,14.14
2023-05-05T00:55:32.327Z,14.12
2023-05-05T01:00:34.245Z,14.07
2023-05-05T01:05:32.003Z,14.04
2023-05-05T01:10:37.570Z,13.99
2023-05-05T01:15:35.027Z,13.97
2023-05-05T01:20:37.203Z,13.96
2023-05-05T01:25:42.661Z,13.96
2023-05-05T01:30:42.734Z,13.96
2023-05-05T01:35:33.918Z,13.95
2023-05-05T01:40:37.057Z,13.94
2023-05-05T01:45:33.899Z,13.92
2023-05-05T01:50:32.283Z,13.9
2023-05-05T01:55:32.376Z,13.89
2023-05-05T02:00:35.720Z,13.87
2023-05-05T02:05:32.403Z,13.83
2023-05-05T02:10:31.811Z,13.8
2023-05-05T02:15:32.866Z,13.77
2023-05-05T02:20:32.281Z,13.72
2023-05-05T02:25:36.245Z,13.71
2023-05-05T02:30:32.815Z,13.66
2023-05-05T02:35:36.301Z,13.61
2023-05-05T02:40:32.763Z,13.59
2023-05-05T02:45:32.223Z,13.53
2023-05-05T02:50:31.426Z,13.46
2023-05-05T02:55:35.828Z,13.43
2023-05-05T03:00:35.869Z,13.41
2023-05-05T03:05:32.891Z,13.33
2023-05-05T03:10:33.921Z,13.25
2023-05-05T03:15:33.904Z,13.2
2023-05-05T03:20:31.940Z,13.15
2023-05-05T03:25:41.687Z,13.13
2023-05-05T03:30:34.528Z,13.07
2023-05-05T03:35:31.433Z,13
2023-05-05T03:40:43.037Z,12.97
2023-05-05T03:45:34.552Z,12.91
2023-05-05T03:50:31.466Z,12.83
2023-05-05T03:55:31.332Z,12.78
2023-05-05T04:00:31.677Z,12.72
2023-05-05T04:05:31.632Z,12.63
2023-05-05T04:10:31.648Z,12.6
2023-05-05T04:15:32.183Z,12.55
2023-05-05T04:20:31.385Z,12.56
2023-05-05T04:25:31.654Z,12.55
2023-05-05T04:30:31.717Z,12.53
2023-05-05T04:35:31.330Z,12.51
2023-05-05T04:40:31.435Z,12.46
2023-05-05T04:45:31.466Z,12.43
2023-05-05T04:50:33.724Z,12.43
2023-05-05T04:55:31.337Z,12.36
2023-05-05T05:00:33.747Z,12.33
2023-05-05T05:05:31.446Z,12.36
2023-05-05T05:10:31.574Z,12.41
2023-05-05T05:15:31.509Z,12.46
2023-05-05T05:20:31.317Z,12.54
2023-05-05T05:25:31.363Z,12.56
2023-05-05T05:30:31.400Z,12.65
2023-05-05T05:35:31.471Z,12.79
2023-05-05T05:40:34.318Z,13.24
2023-05-05T05:45:31.376Z,13.78
2023-05-05T05:50:31.357Z,14.31
2023-05-05T05:55:34.403Z,14.46
2023-05-05T06:00:31.595Z,14.46
2023-05-05T06:05:31.315Z,14.52
2023-05-05T06:10:31.521Z,15
2023-05-05T06:15:31.520Z,15.57
2023-05-05T06:20:31.584Z,16.27
2023-05-05T06:25:31.499Z,16.79
2023-05-05T06:30:31.312Z,17.23
2023-05-05T06:35:32.080Z,17.63
2023-05-05T06:40:31.841Z,17.98
2023-05-05T06:45:31.721Z,18.37
2023-05-05T06:50:31.272Z,18.78
2023-05-05T06:55:31.492Z,19.17
2023-05-05T07:00:31.413Z,19.54
2023-05-05T07:05:31.237Z,19.72
2023-05-05T07:10:31.902Z,19.93
2023-05-05T07:15:31.272Z,20.11
2023-05-05T07:20:31.555Z,20.35
2023-05-05T07:25:31.311Z,20.53
2023-05-05T07:30:31.340Z,20.73
2023-05-05T07:35:31.659Z,20.88
2023-05-05T07:40:31.233Z,21.16
2023-05-05T07:45:31.565Z,21.42
2023-05-05T07:50:31.508Z,21.55
2023-05-05T07:55:31.378Z,21.73
2023-05-05T08:00:31.580Z,21.84
2023-05-05T08:05:31.348Z,21.87
2023-05-05T08:10:32.196Z,22.12
2023-05-05T08:15:31.534Z,22.31
2023-05-05T08:20:32.098Z,22.51
2023-05-05T08:25:31.344Z,22.64
2023-05-05T08:30:34.341Z,22.63
2023-05-05T08:35:31.220Z,22.34
2023-05-05T08:40:33.637Z,22.1
2023-05-05T08:45:32.158Z,21.95
2023-05-05T08:48:49.604Z,22.01
2023-05-05T08:53:51.865Z,22.19
2023-05-05T08:58:48.904Z,22.24
2023-05-05T09:03:48.776Z,22.24
2023-05-05T09:08:52.206Z,22.4
2023-05-05T09:13:48.508Z,22.75
2023-05-05T09:18:50.905Z,22.81
2023-05-05T09:24:02.415Z,22.81
2023-05-05T09:29:04.557Z,22.89
2023-05-05T09:33:52.927Z,22.89
2023-05-05T09:39:00.569Z,22.82
2023-05-05T09:43:59.789Z,22.6
2023-05-05T09:48:48.771Z,22.31
2023-05-05T09:53:48.447Z,22.06
2023-05-05T09:58:48.812Z,21.9
2023-05-05T10:03:54.119Z,21.77
2023-05-05T10:08:48.547Z,21.63
2023-05-05T10:13:48.567Z,21.46
2023-05-05T10:18:51.828Z,21.33
2023-05-05T10:23:51.300Z,21.21
2023-05-05T10:28:51.529Z,21.11
2023-05-05T10:33:52.110Z,21.06
2023-05-05T10:38:51.710Z,21
2023-05-05T10:43:51.339Z,20.94
2023-05-05T10:48:51.344Z,20.89
2023-05-05T10:53:56.716Z,20.81
2023-05-05T10:58:59.625Z,20.78
2023-05-05T11:03:48.332Z,20.78
2023-05-05T11:08:51.374Z,20.75
2023-05-05T11:13:48.419Z,20.73
2023-05-05T11:18:48.508Z,20.7
2023-05-05T11:23:48.733Z,20.68
2023-05-05T11:29:08.924Z,20.64
2023-05-05T11:33:48.949Z,20.59
2023-05-05T11:38:56.753Z,20.52
2023-05-05T11:43:48.597Z,20.43
2023-05-05T11:48:54.922Z,20.36
2023-05-05T11:53:50.497Z,20.33
2023-05-05T11:58:48.501Z,20.28
2023-05-05T12:03:48.972Z,20.19
2023-05-05T12:08:48.453Z,20.1
2023-05-05T12:13:48.446Z,20.02
2023-05-05T12:18:49.593Z,19.97
2023-05-05T12:23:48.461Z,19.88
2023-05-05T12:28:51.741Z,19.74
2023-05-05T12:33:49.525Z,19.58
2023-05-05T12:38:50.994Z,19.47
2023-05-05T12:43:51.212Z,19.38
2023-05-05T12:48:48.721Z,19.29
2023-05-05T12:53:49.770Z,19.15
2023-05-05T12:58:55.587Z,19
2023-05-05T13:03:48.382Z,18.88
2023-05-05T13:08:53.797Z,18.79
2023-05-05T13:13:51.470Z,18.69
2023-05-05T13:18:53.584Z,18.58
2023-05-05T13:23:52.569Z,18.42
2023-05-05T13:28:49.763Z,18.26
2023-05-05T13:33:48.455Z,18.15
2023-05-05T13:38:48.458Z,18
2023-05-05T13:43:52.069Z,17.91
2023-05-05T13:48:48.746Z,17.81
2023-05-05T13:53:48.553Z,17.66
2023-05-05T13:58:51.925Z,17.49
2023-05-05T14:03:48.555Z,17.35
2023-05-05T14:08:48.481Z,17.27
2023-05-05T14:13:49.863Z,17.22
2023-05-05T14:18:48.463Z,17.18
2023-05-05T14:23:48.456Z,17.19
2023-05-05T14:28:50.095Z,17.17
2023-05-05T14:33:48.540Z,17.18
2023-05-05T14:38:48.458Z,17.22
2023-05-05T14:43:51.372Z,17.25
2023-05-05T14:48:48.548Z,17.32
2023-05-05T14:53:48.460Z,17.41
2023-05-05T14:58:49.490Z,17.53
2023-05-05T15:03:48.481Z,17.72
2023-05-05T15:08:51.121Z,17.95
2023-05-05T15:13:48.416Z,18.21
2023-05-05T15:18:48.406Z,18.55
2023-05-05T15:23:48.475Z,18.74
2023-05-05T15:28:50.232Z,18.9
2023-05-05T15:33:49.630Z,19.11
2023-05-05T15:38:51.268Z,19.27
2023-05-05T15:43:48.432Z,19.4
2023-05-05T15:48:48.355Z,19.59
2023-05-05T15:53:48.392Z,19.65
2023-05-05T15:58:51.553Z,19.71
2023-05-05T16:03:48.293Z,19.83
2023-05-05T16:08:51.692Z,20.01
2023-05-05T16:13:48.450Z,20.03
2023-05-05T16:18:48.525Z,20.17
2023-05-05T16:23:48.372Z,20.15
2023-05-05T16:28:51.355Z,20.16
2023-05-05T16:33:48.277Z,20.12
2023-05-05T16:38:48.447Z,20.04
2023-05-05T16:43:48.457Z,20.01
2023-05-05T16:48:48.488Z,20.05
2023-05-05T16:53:52.523Z,20.08
2023-05-05T16:58:48.338Z,20.09
2023-05-05T17:03:48.395Z,20.04
2023-05-05T17:08:48.477Z,19.84
2023-05-05T17:13:48.509Z,19.64
2023-05-05T17:18:48.327Z,19.58
2023-05-05T17:23:50.989Z,19.48
2023-05-05T17:28:48.697Z,18.26
2023-05-05T17:33:48.252Z,17.81
2023-05-05T17:38:50.979Z,17.46
2023-05-05T17:43:48.490Z,18.12
2023-05-05T17:48:51.052Z,18.58
2023-05-05T17:53:48.336Z,18.63
2023-05-05T17:58:48.761Z,18.54
2023-05-05T18:03:48.417Z,18.42
2023-05-05T18:08:48.538Z,18.32
2023-05-05T18:13:48.431Z,18.23
2023-05-05T18:18:49.912Z,18.13
2023-05-05T18:23:48.771Z,18.05
2023-05-05T18:28:48.449Z,17.98
2023-05-05T18:33:48.502Z,17.93
2023-05-05T18:38:48.455Z,17.86
2023-05-05T18:43:48.743Z,17.76
2023-05-05T18:48:48.262Z,17.62
2023-05-05T18:53:48.299Z,17.48
2023-05-05T18:58:48.587Z,17.33
2023-05-05T19:03:49.799Z,17.18
2023-05-05T19:08:48.955Z,17.02
2023-05-05T19:13:51.689Z,16.88
2023-05-05T19:18:48.668Z,16.73
2023-05-05T19:23:48.306Z,16.58
2023-05-05T19:28:48.268Z,16.41
2023-05-05T19:33:51.427Z,16.27
2023-05-05T19:38:48.224Z,16.1
2023-05-05T19:43:50.392Z,15.96
2023-05-05T19:48:48.437Z,15.83
2023-05-05T19:53:48.332Z,15.69
2023-05-05T19:59:01.317Z,15.59
2023-05-05T20:03:48.415Z,15.49
2023-05-05T20:08:50.881Z,15.42
2023-05-05T20:13:52.053Z,15.32
2023-05-05T20:18:48.546Z,15.22
2023-05-05T20:23:48.844Z,15.09
2023-05-05T20:28:48.165Z,14.99
2023-05-05T20:33:48.466Z,14.87
2023-05-05T20:38:48.433Z,14.78
2023-05-05T20:43:48.373Z,14.66
2023-05-05T20:48:48.274Z,14.57
2023-05-05T20:53:50.413Z,14.45
2023-05-05T20:58:48.472Z,14.36
2023-05-05T21:03:48.403Z,14.27
2023-05-05T21:08:48.261Z,14.15
2023-05-05T21:13:48.219Z,14.07
2023-05-05T21:18:51.551Z,13.99
2023-05-05T21:23:49.910Z,13.88
2023-05-05T21:28:48.305Z,13.78
2023-05-05T21:33:48.346Z,13.71
2023-05-05T21:38:49.597Z,13.64
2023-05-05T21:43:48.308Z,13.54
2023-05-05T21:48:52.694Z,13.44
2023-05-05T21:53:48.219Z,13.37
2023-05-05T21:58:48.343Z,13.31
2023-05-05T22:03:48.497Z,13.26
2023-05-05T22:08:48.338Z,13.2
2023-05-05T22:13:48.298Z,13.22
2023-05-05T22:18:48.658Z,13.15
2023-05-05T22:23:48.472Z,13.09
2023-05-05T22:28:48.307Z,13.07
2023-05-05T22:33:48.406Z,12.99
2023-05-05T22:38:48.403Z,12.94
2023-05-05T22:43:49.539Z,12.86
2023-05-05T22:48:49.062Z,12.83
2023-05-05T22:53:49.623Z,12.78
2023-05-05T22:58:48.495Z,12.72
2023-05-05T23:03:48.417Z,12.65
2023-05-05T23:08:48.902Z,12.62
2023-05-05T23:13:48.816Z,12.55
2023-05-05T23:18:48.203Z,12.5
2023-05-05T23:23:50.748Z,12.46
2023-05-05T23:28:48.271Z,12.44
2023-05-05T23:33:48.216Z,12.46
2023-05-05T23:38:48.297Z,12.44
2023-05-05T23:43:48.261Z,12.48
2023-05-05T23:48:49.709Z,12.48
2023-05-05T23:53:48.340Z,12.47
2023-05-05T23:58:48.235Z,12.43
